createdAt,value
2018-04-24T00:00:46.076Z,59.31
2018-04-24T00:03:13.484Z,59.85
2018-04-24T00:05:40.915Z,59.39
2018-04-24T00:08:08.312Z,59.30
2018-04-24T00:10:35.719Z,59.22
2018-04-24T00:13:03.144Z,59.72
2018-04-24T00:15:30.564Z,59.69
2018-04-24T00:17:57.976Z,59.87
2018-04-24T00:20:25.406Z,60.35
2018-04-24T00:22:52.814Z,60.43
2018-04-24T00:25:20.229Z,60.80
2018-04-24T00:27:47.642Z,60.38
2018-04-24T00:30:15.081Z,60.43
2018-04-24T00:32:42.523Z,60.25
2018-04-24T00:35:09.939Z,60.30
2018-04-24T00:37:37.343Z,60.48
2018-04-24T00:40:04.770Z,60.66
2018-04-24T00:42:32.184Z,60.75
2018-04-24T00:44:59.640Z,60.65
2018-04-24T00:47:27.080Z,60.76
2018-04-24T00:49:54.795Z,61.37
2018-04-24T00:52:22.195Z,61.42
2018-04-24T00:54:49.602Z,61.34
2018-04-24T00:57:17.020Z,61.49
2018-04-24T00:59:44.432Z,62.20
2018-04-24T01:02:11.866Z,62.49
2018-04-24T01:04:39.272Z,63.04
2018-04-24T01:07:06.972Z,62.73
2018-04-24T01:09:34.372Z,62.65
2018-04-24T01:12:01.787Z,63.67
2018-04-24T01:14:29.207Z,63.23
2018-04-24T01:16:56.619Z,64.02
2018-04-24T01:19:24.067Z,63.88
2018-04-24T01:21:51.476Z,63.95
2018-04-24T01:24:18.916Z,64.27
2018-04-24T01:26:46.332Z,64.00
2018-04-24T01:29:13.756Z,63.88
2018-04-24T01:31:41.174Z,64.00
2018-04-24T01:34:08.621Z,64.05
2018-04-24T01:36:36.028Z,64.18
2018-04-24T01:39:03.432Z,64.37
2018-04-24T01:41:30.860Z,64.71
2018-04-24T01:43:58.270Z,65.09
2018-04-24T01:46:25.756Z,65.35
2018-04-24T01:48:53.169Z,65.36
2018-04-24T01:51:20.590Z,65.60
2018-04-24T01:53:48.039Z,65.38
2018-04-24T01:56:15.463Z,65.74
2018-04-24T01:58:42.896Z,66.00
2018-04-24T02:01:10.326Z,66.55
2018-04-24T02:03:37.963Z,66.43
2018-04-24T02:06:05.369Z,66.06
2018-04-24T02:08:32.783Z,66.50
2018-04-24T02:11:00.207Z,66.42
2018-04-24T02:13:27.611Z,66.80
2018-04-24T02:15:55.217Z,66.81
2018-04-24T02:18:22.635Z,67.17
2018-04-24T02:20:50.039Z,67.50
2018-04-24T02:23:17.476Z,67.32
2018-04-24T02:25:44.883Z,67.26
2018-04-24T02:28:12.307Z,67.79
2018-04-24T02:30:39.720Z,68.26
2018-04-24T02:33:07.155Z,68.38
2018-04-24T02:35:34.662Z,68.04
2018-04-24T02:38:01.995Z,68.64
2018-04-24T02:40:29.523Z,68.53
2018-04-24T02:42:56.840Z,68.97
2018-04-24T02:45:24.432Z,69.31
2018-04-24T02:47:51.851Z,69.99
2018-04-24T02:50:19.259Z,70.08
2018-04-24T02:52:46.694Z,69.39
2018-04-24T02:55:14.146Z,69.31
2018-04-24T02:57:41.576Z,68.83
2018-04-24T03:00:08.999Z,68.53
2018-04-24T03:02:36.436Z,67.79
2018-04-24T03:05:03.838Z,67.32
2018-04-24T03:07:31.284Z,67.42
2018-04-24T03:09:58.702Z,67.03
2018-04-24T03:12:26.128Z,66.94
2018-04-24T03:14:53.540Z,66.86
2018-04-24T03:17:21.111Z,67.20
2018-04-24T03:19:48.520Z,67.21
2018-04-24T03:22:15.949Z,67.26
2018-04-24T03:24:43.439Z,67.38
2018-04-24T03:27:10.877Z,67.58
2018-04-24T03:29:38.283Z,67.79
2018-04-24T03:32:05.724Z,67.82
2018-04-24T03:34:33.135Z,68.16
2018-04-24T03:37:00.899Z,68.52
2018-04-24T03:39:28.331Z,68.11
2018-04-24T03:41:55.739Z,68.49
2018-04-24T03:44:23.171Z,68.71
2018-04-24T03:46:50.591Z,68.86
2018-04-24T03:49:18.040Z,68.73
2018-04-24T03:51:45.449Z,68.97
2018-04-24T03:54:12.928Z,69.23
2018-04-24T03:56:40.341Z,69.12
2018-04-24T03:59:07.775Z,69.08
2018-04-24T04:01:35.195Z,69.22
2018-04-24T04:04:02.632Z,69.62
2018-04-24T04:06:30.349Z,69.36
2018-04-24T04:08:57.758Z,69.30
2018-04-24T04:11:25.175Z,69.25
2018-04-24T04:13:52.617Z,69.34
2018-04-24T04:16:20.422Z,68.95
2018-04-24T04:18:59.496Z,69.27
2018-04-24T04:24:49.757Z,69.16
2018-04-24T04:27:17.169Z,69.01
2018-04-24T04:29:44.944Z,68.98
2018-04-24T04:32:12.362Z,69.08
2018-04-24T04:34:39.777Z,68.74
2018-04-24T04:37:07.216Z,68.50
2018-04-24T04:39:34.623Z,68.31
2018-04-24T04:42:02.056Z,67.93
2018-04-24T04:44:29.467Z,67.87
2018-04-24T04:46:56.897Z,67.72
2018-04-24T04:49:24.320Z,67.10
2018-04-24T04:51:51.732Z,67.19
2018-04-24T04:54:19.158Z,66.75
2018-04-24T04:56:46.561Z,66.50
2018-04-24T04:59:14.001Z,66.32
2018-04-24T05:01:41.408Z,65.97
2018-04-24T05:04:09.120Z,65.63
2018-04-24T05:06:36.515Z,64.65
2018-04-24T05:09:03.928Z,64.15
2018-04-24T05:11:31.352Z,64.32
2018-04-24T05:13:59.096Z,64.84
2018-04-24T05:16:26.504Z,65.07
2018-04-24T05:18:53.907Z,64.86
2018-04-24T05:21:21.337Z,65.18
2018-04-24T05:23:48.756Z,65.18
2018-04-24T05:26:16.161Z,65.07
2018-04-24T05:28:43.578Z,65.52
2018-04-24T05:31:11.257Z,65.31
2018-04-24T05:33:38.679Z,65.49
2018-04-24T05:36:06.087Z,65.14
2018-04-24T05:38:33.504Z,65.00
2018-04-24T05:41:00.910Z,64.89
2018-04-24T05:43:28.424Z,64.55
2018-04-24T05:45:55.827Z,64.19
2018-04-24T05:48:23.251Z,64.26
2018-04-24T05:50:50.661Z,64.01
2018-04-24T05:53:18.101Z,63.79
2018-04-24T05:55:45.495Z,63.82
2018-04-24T05:58:12.934Z,63.79
2018-04-24T06:00:40.717Z,63.55
2018-04-24T06:03:08.159Z,63.42
2018-04-24T06:05:35.556Z,63.83
2018-04-24T06:08:02.985Z,63.34
2018-04-24T06:10:30.706Z,63.38
2018-04-24T06:12:58.132Z,63.21
2018-04-24T06:15:25.547Z,63.48
2018-04-24T06:17:52.966Z,63.84
2018-04-24T06:20:20.692Z,63.81
2018-04-24T06:22:48.108Z,64.51
2018-04-24T06:25:15.516Z,65.77
2018-04-24T06:27:42.935Z,65.59
2018-04-24T06:30:10.349Z,66.92
2018-04-24T06:32:37.805Z,67.48
2018-04-24T06:35:05.223Z,67.30
2018-04-24T06:37:32.629Z,66.86
2018-04-24T06:40:00.292Z,66.68
2018-04-24T06:42:27.692Z,67.08
2018-04-24T06:44:55.092Z,67.14
2018-04-24T06:47:22.517Z,66.27
2018-04-24T06:49:50.210Z,66.45
2018-04-24T06:52:17.650Z,66.10
2018-04-24T06:54:45.082Z,65.46
2018-04-24T06:57:12.590Z,64.92
2018-04-24T06:59:39.995Z,64.42
2018-04-24T07:02:07.426Z,63.80
2018-04-24T07:04:35.552Z,64.17
2018-04-24T07:07:03.076Z,63.49
2018-04-24T07:09:30.487Z,63.37
2018-04-24T07:11:57.927Z,63.00
2018-04-24T07:14:26.355Z,62.54
2018-04-24T07:16:53.866Z,63.02
2018-04-24T07:19:21.699Z,62.21
2018-04-24T07:21:49.099Z,62.33
2018-04-24T07:24:16.971Z,62.81
2018-04-24T07:26:44.382Z,63.91
2018-04-24T07:29:11.780Z,65.29
2018-04-24T07:31:39.793Z,66.05
2018-04-24T07:34:07.202Z,66.39
2018-04-24T07:36:34.629Z,66.40
2018-04-24T07:39:02.047Z,67.55
2018-04-24T07:41:29.977Z,68.48
2018-04-24T07:43:57.397Z,68.65
2018-04-24T07:46:24.817Z,68.90
2018-04-24T07:48:52.448Z,68.37
2018-04-24T07:51:19.867Z,68.88
2018-04-24T07:53:47.280Z,69.23
2018-04-24T07:56:14.724Z,68.77
2018-04-24T07:58:42.151Z,69.42
2018-04-24T08:01:09.592Z,69.37
2018-04-24T08:03:36.991Z,69.63
2018-04-24T08:06:04.447Z,69.49
2018-04-24T08:08:31.880Z,69.55
2018-04-24T08:10:59.310Z,69.26
2018-04-24T08:13:27.235Z,69.64
2018-04-24T08:15:54.645Z,69.65
2018-04-24T08:18:22.052Z,69.62
2018-04-24T08:20:49.483Z,69.37
2018-04-24T08:23:16.941Z,69.60
2018-04-24T08:25:44.380Z,68.86
2018-04-24T08:28:11.796Z,68.90
2018-04-24T08:30:39.246Z,68.88
2018-04-24T08:33:06.681Z,69.01
2018-04-24T08:35:34.134Z,69.15
2018-04-24T08:38:01.553Z,69.00
2018-04-24T08:40:28.963Z,68.94
2018-04-24T08:42:57.648Z,68.90
2018-04-24T08:45:25.069Z,68.41
2018-04-24T08:47:52.593Z,68.22
2018-04-24T08:50:19.956Z,68.32
2018-04-24T08:52:47.366Z,68.29
2018-04-24T08:55:14.816Z,67.76
2018-04-24T08:57:42.283Z,67.17
2018-04-24T09:00:09.687Z,66.57
2018-04-24T09:02:37.101Z,66.23
2018-04-24T09:05:04.845Z,66.09
2018-04-24T09:07:32.252Z,66.44
2018-04-24T09:09:59.659Z,65.82
2018-04-24T09:12:27.150Z,65.47
2018-04-24T09:14:54.595Z,65.72
2018-04-24T09:17:22.018Z,65.57
2018-04-24T09:19:49.560Z,65.56
2018-04-24T09:22:17.027Z,65.57
2018-04-24T09:24:44.436Z,65.18
2018-04-24T09:27:12.012Z,64.98
2018-04-24T09:29:39.433Z,64.93
2018-04-24T09:32:07.006Z,64.12
2018-04-24T09:34:34.503Z,64.25
2018-04-24T09:37:01.984Z,63.62
2018-04-24T09:39:29.731Z,62.78
2018-04-24T09:41:58.146Z,61.93
2018-04-24T09:44:25.580Z,61.29
2018-04-24T09:46:53.012Z,60.78
2018-04-24T09:49:20.463Z,60.92
2018-04-24T09:51:48.219Z,59.87
2018-04-24T09:54:15.653Z,58.33
2018-04-24T09:56:43.279Z,58.20
2018-04-24T09:59:11.555Z,58.61
2018-04-24T10:01:39.886Z,58.80
2018-04-24T10:04:07.340Z,58.47
2018-04-24T10:06:34.760Z,58.69
2018-04-24T10:09:02.303Z,59.00
2018-04-24T10:11:29.704Z,58.69
2018-04-24T10:13:57.451Z,57.98
2018-04-24T10:16:24.881Z,57.47
2018-04-24T10:18:52.301Z,58.00
2018-04-24T10:21:19.722Z,58.00
2018-04-24T10:23:47.580Z,58.19
2018-04-24T10:26:15.035Z,57.98
2018-04-24T10:28:42.452Z,58.26
2018-04-24T10:31:10.420Z,58.40
2018-04-24T10:33:37.845Z,58.29
2018-04-24T10:36:05.275Z,58.97
2018-04-24T10:38:32.708Z,59.41
2018-04-24T10:41:00.141Z,59.42
2018-04-24T10:43:27.552Z,59.62
2018-04-24T10:45:54.983Z,60.59
2018-04-24T10:48:22.892Z,60.60
2018-04-24T10:50:50.325Z,60.75
2018-04-24T10:53:17.728Z,61.16
2018-04-24T10:55:45.259Z,61.29
2018-04-24T10:58:12.680Z,61.23
2018-04-24T11:00:40.571Z,61.28
2018-04-24T11:03:08.024Z,61.23
2018-04-24T11:05:35.436Z,61.30
2018-04-24T11:08:02.879Z,61.64
2018-04-24T11:10:30.281Z,61.32
2018-04-24T11:12:58.969Z,61.77
2018-04-24T11:15:26.398Z,61.57
2018-04-24T11:17:53.832Z,61.59
2018-04-24T11:20:21.432Z,61.18
2018-04-24T11:22:48.843Z,60.94
2018-04-24T11:25:16.357Z,60.78
2018-04-24T11:27:43.811Z,59.76
2018-04-24T11:30:11.312Z,59.91
2018-04-24T11:32:38.997Z,59.85
2018-04-24T11:35:06.428Z,59.67
2018-04-24T11:37:33.845Z,59.72
2018-04-24T11:40:01.306Z,59.67
2018-04-24T11:42:28.756Z,59.21
2018-04-24T11:44:56.184Z,59.17
2018-04-24T11:47:23.936Z,58.83
2018-04-24T11:49:51.368Z,58.19
2018-04-24T11:52:18.857Z,57.46
2018-04-24T11:54:46.342Z,56.87
2018-04-24T11:57:14.684Z,56.41
2018-04-24T11:59:42.115Z,56.13
2018-04-24T12:02:09.748Z,55.61
2018-04-24T12:04:37.165Z,54.82
2018-04-24T12:07:05.018Z,54.52
2018-04-24T12:09:32.441Z,55.49
2018-04-24T12:11:59.867Z,54.69
2018-04-24T12:14:27.456Z,54.16
2018-04-24T12:16:54.884Z,54.86
2018-04-24T12:19:22.331Z,54.79
2018-04-24T12:21:49.740Z,55.72
2018-04-24T12:24:18.309Z,55.18
2018-04-24T12:26:45.716Z,55.86
2018-04-24T12:29:13.135Z,56.95
2018-04-24T12:31:40.576Z,57.29
2018-04-24T12:34:08.001Z,57.52
2018-04-24T12:36:35.487Z,57.02
2018-04-24T12:39:02.928Z,56.84
2018-04-24T12:41:30.344Z,56.68
2018-04-24T12:43:58.094Z,56.88
2018-04-24T12:46:25.516Z,57.16
2018-04-24T12:48:52.965Z,56.48
2018-04-24T12:51:20.422Z,56.47
2018-04-24T12:53:47.862Z,56.61
2018-04-24T12:56:15.331Z,56.54
2018-04-24T12:58:42.751Z,56.39
2018-04-24T13:01:10.567Z,56.65
2018-04-24T13:03:37.993Z,55.97
2018-04-24T13:06:05.481Z,55.88
2018-04-24T13:08:32.922Z,55.87
2018-04-24T13:11:00.375Z,55.83
2018-04-24T13:13:28.223Z,54.88
2018-04-24T13:15:55.628Z,54.00
2018-04-24T13:18:23.369Z,53.81
2018-04-24T13:20:50.785Z,53.57
2018-04-24T13:23:18.196Z,53.70
2018-04-24T13:25:45.704Z,53.85
2018-04-24T13:28:13.057Z,53.70
2018-04-24T13:30:40.465Z,53.29
2018-04-24T13:33:08.303Z,54.04
2018-04-24T13:35:35.712Z,53.67
2018-04-24T13:38:03.133Z,54.37
2018-04-24T13:40:30.634Z,54.52
2018-04-24T13:42:58.088Z,54.51
2018-04-24T13:45:25.512Z,54.85
2018-04-24T13:47:52.928Z,54.88
2018-04-24T13:50:20.360Z,54.36
2018-04-24T13:52:47.772Z,54.18
2018-04-24T13:55:15.229Z,54.02
2018-04-24T13:57:42.645Z,54.30
2018-04-24T14:00:10.079Z,54.55
2018-04-24T14:02:37.492Z,54.56
2018-04-24T14:05:04.923Z,54.70
2018-04-24T14:07:32.335Z,54.57
2018-04-24T14:10:00.157Z,54.79
2018-04-24T14:12:27.568Z,54.93
2018-04-24T14:14:55.000Z,53.91
2018-04-24T14:17:22.437Z,54.48
2018-04-24T14:19:49.839Z,54.26
2018-04-24T14:22:17.297Z,54.28
2018-04-24T14:24:44.700Z,54.01
2018-04-24T14:27:12.138Z,53.74
2018-04-24T14:29:39.552Z,53.70
2018-04-24T14:32:07.663Z,54.04
2018-04-24T14:34:35.072Z,53.88
2018-04-24T14:37:02.505Z,54.25
2018-04-24T14:39:29.948Z,54.27
2018-04-24T14:41:57.392Z,54.47
2018-04-24T14:44:24.830Z,54.71
2018-04-24T14:46:52.239Z,54.81
2018-04-24T14:49:19.689Z,54.96
2018-04-24T14:51:47.214Z,55.29
2018-04-24T14:54:14.562Z,55.43
2018-04-24T14:56:41.980Z,55.31
2018-04-24T14:59:09.415Z,55.11
2018-04-24T15:01:36.844Z,55.31
2018-04-24T15:04:04.311Z,55.81
2018-04-24T15:06:46.635Z,55.62
2018-04-24T15:09:14.071Z,56.37
2018-04-24T15:11:41.484Z,56.49
2018-04-24T15:14:08.958Z,56.68
2018-04-24T15:16:36.366Z,56.77
2018-04-24T15:19:04.039Z,56.83
2018-04-24T15:21:31.472Z,56.91
2018-04-24T15:23:58.898Z,56.57
2018-04-24T15:26:26.600Z,57.27
2018-04-24T15:28:54.009Z,56.47
2018-04-24T15:31:21.430Z,56.55
2018-04-24T15:33:48.868Z,56.86
2018-04-24T15:36:16.328Z,57.40
2018-04-24T15:38:43.739Z,57.45
2018-04-24T15:41:11.185Z,57.77
2018-04-24T15:43:38.596Z,57.81
2018-04-24T15:46:06.050Z,58.08
2018-04-24T15:48:33.464Z,58.04
2018-04-24T15:51:01.247Z,58.09
2018-04-24T15:53:28.655Z,58.19
2018-04-24T15:55:56.084Z,57.98
2018-04-24T15:58:23.492Z,58.08
2018-04-24T16:00:50.904Z,57.43
2018-04-24T16:03:18.700Z,57.77
2018-04-24T16:05:46.157Z,57.67
2018-04-24T16:08:13.572Z,57.80
2018-04-24T16:10:41.007Z,57.72
2018-04-24T16:13:08.431Z,57.67
2018-04-24T16:15:35.851Z,58.04
2018-04-24T16:18:03.624Z,57.82
2018-04-24T16:20:31.038Z,57.82
2018-04-24T16:22:58.455Z,57.65
2018-04-24T16:25:25.883Z,57.68
2018-04-24T16:27:53.299Z,57.68
2018-04-24T16:30:20.768Z,57.98
2018-04-24T16:32:48.176Z,57.53
2018-04-24T16:35:15.614Z,57.99
2018-04-24T16:37:43.036Z,57.68
2018-04-24T16:40:10.443Z,57.47
2018-04-24T16:42:37.864Z,57.45
2018-04-24T16:45:05.278Z,57.53
2018-04-24T16:47:32.732Z,57.81
2018-04-24T16:50:00.173Z,58.05
2018-04-24T16:52:27.584Z,57.31
2018-04-24T16:54:55.020Z,57.55
2018-04-24T16:57:22.428Z,57.78
2018-04-24T16:59:49.884Z,57.58
2018-04-24T17:02:17.304Z,57.85
2018-04-24T17:04:45.036Z,58.38
2018-04-24T17:07:12.446Z,58.25
2018-04-24T17:09:39.860Z,58.51
2018-04-24T17:12:07.304Z,58.39
2018-04-24T17:14:34.712Z,58.70
2018-04-24T17:17:02.147Z,58.46
2018-04-24T17:19:29.585Z,58.67
2018-04-24T17:21:57.276Z,58.88
2018-04-24T17:24:24.698Z,59.17
2018-04-24T17:26:52.124Z,59.22
2018-04-24T17:29:19.621Z,59.27
2018-04-24T17:31:47.037Z,59.40
2018-04-24T17:34:14.472Z,59.46
2018-04-24T17:36:41.903Z,59.62
2018-04-24T17:39:09.307Z,59.42
2018-04-24T17:41:36.791Z,59.29
2018-04-24T17:44:04.211Z,59.91
2018-04-24T17:46:31.653Z,60.04
2018-04-24T17:48:59.061Z,59.87
2018-04-24T17:51:26.500Z,59.78
2018-04-24T17:53:53.908Z,59.79
2018-04-24T17:56:22.043Z,59.75
2018-04-24T17:58:49.475Z,59.78
2018-04-24T18:01:16.884Z,60.29
2018-04-24T18:03:44.316Z,60.33
2018-04-24T18:06:11.720Z,60.41
2018-04-24T18:08:39.143Z,60.17
2018-04-24T18:11:06.630Z,60.44
2018-04-24T18:13:34.057Z,60.23
2018-04-24T18:16:01.468Z,60.13
2018-04-24T18:18:28.898Z,60.67
2018-04-24T18:20:56.317Z,60.90
2018-04-24T18:23:24.181Z,60.70
2018-04-24T18:25:51.628Z,60.89
2018-04-24T18:28:19.158Z,60.99
2018-04-24T18:30:46.588Z,61.64
2018-04-24T18:33:14.008Z,61.00
2018-04-24T18:38:32.779Z,61.31
2018-04-24T18:41:00.191Z,61.26
2018-04-24T18:43:27.619Z,61.90
2018-04-24T18:45:55.047Z,61.53
2018-04-24T18:48:22.469Z,61.84
2018-04-24T18:50:49.970Z,61.92
2018-04-24T18:53:17.387Z,61.64
2018-04-24T18:55:44.813Z,61.86
2018-04-24T18:58:12.239Z,61.83
2018-04-24T19:00:39.647Z,62.56
2018-04-24T19:03:07.075Z,61.95
2018-04-24T19:05:34.507Z,62.10
2018-04-24T19:08:02.018Z,62.03
2018-04-24T19:10:29.992Z,62.25
2018-04-24T19:12:57.649Z,62.40
2018-04-24T19:15:25.080Z,62.48
2018-04-24T19:17:52.523Z,62.14
2018-04-24T19:20:19.960Z,63.18
2018-04-24T19:22:47.484Z,63.04
2018-04-24T19:25:20.463Z,62.68
2018-04-24T19:27:47.910Z,62.44
2018-04-24T19:30:15.394Z,62.92
2018-04-24T19:32:42.835Z,62.82
2018-04-24T19:35:10.275Z,63.02
2018-04-24T19:37:37.995Z,62.80
2018-04-24T19:40:11.175Z,63.25
2018-04-24T19:42:38.647Z,63.04
2018-04-24T19:45:06.316Z,63.46
2018-04-24T19:47:33.723Z,64.17
2018-04-24T19:50:06.694Z,63.89
2018-04-24T19:52:34.123Z,63.69
2018-04-24T19:55:07.463Z,63.59
2018-04-24T19:57:34.880Z,63.59
2018-04-24T20:00:02.314Z,63.66
2018-04-24T20:02:30.078Z,63.78
2018-04-24T20:04:57.491Z,63.62
2018-04-24T20:07:24.913Z,63.75
2018-04-24T20:09:52.345Z,63.83
2018-04-24T20:12:19.752Z,63.87
2018-04-24T20:14:47.196Z,64.13
2018-04-24T20:17:14.604Z,64.05
2018-04-24T20:19:42.030Z,63.90
2018-04-24T20:22:09.465Z,64.26
2018-04-24T20:24:36.951Z,64.20
2018-04-24T20:27:04.364Z,64.50
2018-04-24T20:29:31.791Z,64.32
2018-04-24T20:31:59.217Z,64.77
2018-04-24T20:34:26.636Z,65.08
2018-04-24T20:36:54.060Z,64.89
2018-04-24T20:39:21.483Z,64.53
2018-04-24T20:41:48.919Z,65.85
2018-04-24T20:44:16.328Z,66.10
2018-04-24T20:46:44.703Z,66.42
2018-04-24T20:49:12.107Z,66.33
2018-04-24T20:51:39.681Z,66.90
2018-04-24T20:54:07.130Z,66.71
2018-04-24T20:56:34.666Z,66.91
2018-04-24T20:59:02.098Z,66.76
2018-04-24T21:01:29.508Z,67.34
2018-04-24T21:03:56.923Z,67.04
2018-04-24T21:06:24.596Z,67.80
2018-04-24T21:08:52.050Z,68.03
2018-04-24T21:11:19.450Z,67.74
2018-04-24T21:13:46.896Z,68.03
2018-04-24T21:16:14.304Z,67.62
2018-04-24T21:18:41.720Z,67.65
2018-04-24T21:21:09.140Z,67.77
2018-04-24T21:23:36.560Z,68.32
2018-04-24T21:26:04.029Z,68.60
2018-04-24T21:28:31.398Z,68.18
2018-04-24T21:30:58.809Z,68.90
2018-04-24T21:33:26.605Z,68.91
2018-04-24T21:35:53.973Z,68.31
2018-04-24T21:38:21.388Z,68.88
2018-04-24T21:40:48.956Z,69.06
2018-04-24T21:43:16.364Z,69.13
2018-04-24T21:45:43.772Z,68.84
2018-04-24T21:48:11.188Z,69.33
2018-04-24T21:50:38.602Z,69.59
2018-04-24T21:53:06.044Z,69.70
2018-04-24T21:55:33.456Z,70.38
2018-04-24T21:58:00.871Z,70.90
2018-04-24T22:00:28.295Z,71.26
2018-04-24T22:02:55.709Z,72.32
2018-04-24T22:05:23.479Z,72.12
2018-04-24T22:07:50.893Z,71.83
2018-04-24T22:10:18.297Z,72.22
2018-04-24T22:12:45.721Z,71.90
2018-04-24T22:15:13.135Z,72.05
2018-04-24T22:17:40.560Z,72.16
2018-04-24T22:20:07.996Z,72.04
2018-04-24T22:22:35.402Z,71.88
2018-04-24T22:25:02.800Z,72.08
2018-04-24T22:27:30.490Z,72.09
2018-04-24T22:29:57.901Z,72.02
2018-04-24T22:32:25.341Z,72.37
2018-04-24T22:34:52.751Z,72.69
2018-04-24T22:37:20.161Z,72.48
2018-04-24T22:39:47.594Z,73.43
2018-04-24T22:42:15.013Z,73.85
2018-04-24T22:44:42.446Z,73.52
2018-04-24T22:47:09.864Z,73.96
2018-04-24T22:49:37.304Z,73.57
2018-04-24T22:52:04.724Z,74.44
2018-04-24T22:54:32.128Z,73.87
2018-04-24T22:56:59.557Z,73.93
2018-04-24T22:59:27.319Z,74.50
2018-04-24T23:01:54.719Z,74.05
2018-04-24T23:04:22.161Z,74.17
2018-04-24T23:06:49.908Z,74.19
2018-04-24T23:09:17.320Z,74.09
2018-04-24T23:11:56.940Z,74.07
2018-04-24T23:14:35.916Z,73.89
2018-04-24T23:17:15.223Z,73.52
2018-04-24T23:19:54.523Z,73.60
2018-04-24T23:22:31.407Z,73.34
2018-04-24T23:24:58.848Z,73.39
2018-04-24T23:27:26.270Z,73.55
2018-04-24T23:29:53.684Z,73.41
2018-04-24T23:32:21.098Z,73.55
2018-04-24T23:34:48.545Z,73.33
2018-04-24T23:37:15.951Z,73.43
2018-04-24T23:39:43.372Z,73.36
2018-04-24T23:42:10.784Z,73.54
2018-04-24T23:44:38.212Z,73.44
2018-04-24T23:47:05.640Z,73.47
2018-04-24T23:49:33.071Z,73.84
2018-04-24T23:52:00.476Z,73.45
2018-04-24T23:54:27.899Z,73.37
2018-04-24T23:56:55.303Z,73.45
2018-04-24T23:59:22.723Z,73.43
